Ellis Island, New Jersey
Current Conditions -  °F | °C
As of 4:51 PM on Friday 19 Dec 2014 (Local Time) from KEWR Reporting Station
Broken Clouds Broken Clouds  
Wind Chill: 23°   Ceiling: 3000
Heat Index: 33°   Visibility: 10mi
Dew Point: 21°   Wind: 14mph
Humidity: 61%   Direction: 300°WNW
Pressure: 30.11"   Gusts: 24mph
Location:  40.696°N, 74.0853°W
Report Text: KEWR 192151Z 30012G21KT 10SM BKN030 01/M06 A3011 RMK AO2 SLP195 T00061061
Loading
Personal Weather Stations






























Interactive Weather Map New forecast layout! Learn more

10-Day Weather Forecast

Advertisements
Track Severe Weather on mobile